Time;durP1;ratioP1;P1;durP2;ratioP2;P2;SDS_P1;SDS_P2;PMS_P1;PMS_P2;Temp;Humidity;BMP_temperature;BMP_pressure;BME280_temperature;BME280_humidity;BME280_pressure;Samples;Min_cycle;Max_cycle;Signal;HPM_P1;HPM_P2
2022/02/28 00:01:56;;;;;;;9.07;5.27;;;;;;;;;;5054919;28;20432;-75
2022/02/28 00:04:22;;;;;;;10.13;5.90;;;-2.60;99.90;;;;;;5055050;28;20466;-74
2022/02/28 00:06:48;;;;;;;11.00;5.70;;;;;;;;;;5054914;28;20428;-75
2022/02/28 00:09:15;;;;;;;12.40;6.27;;;-2.60;99.90;;;;;;5055024;28;20400;-75
2022/02/28 00:11:40;;;;;;;13.53;7.10;;;-2.60;99.90;;;;;;5055006;28;20550;-74
2022/02/28 00:14:06;;;;;;;11.27;6.77;;;-2.70;99.90;;;;;;5054802;28;20542;-75
2022/02/28 00:16:31;;;;;;;11.97;6.57;;;-2.70;99.90;;;;;;5054883;28;20180;-75
2022/02/28 00:18:57;;;;;;;12.63;6.67;;;-2.80;99.90;;;;;;5053666;28;20553;-75
2022/02/28 00:21:23;;;;;;;17.37;8.50;;;-2.70;99.90;;;;;;5054636;28;20636;-74
2022/02/28 00:23:48;;;;;;;20.77;9.93;;;-2.70;99.90;;;;;;5054961;28;20208;-74
2022/02/28 00:26:14;;;;;;;22.77;9.77;;;-2.80;99.90;;;;;;5054549;28;20181;-75
2022/02/28 00:28:40;;;;;;;21.90;10.87;;;-2.80;99.90;;;;;;5054867;28;20581;-74
2022/02/28 00:31:06;;;;;;;24.00;11.33;;;;;;;;;;5055181;28;20202;-76
2022/02/28 00:33:32;;;;;;;24.97;11.83;;;-3.10;99.90;;;;;;5054432;28;20279;-75
2022/02/28 00:35:57;;;;;;;25.60;11.77;;;-3.00;99.90;;;;;;5054502;28;20404;-78
2022/02/28 00:38:24;;;;;;;25.37;11.30;;;-3.00;99.90;;;;;;5054302;28;20623;-75
2022/02/28 00:40:51;;;;;;;14.33;8.07;;;;;;;;;;5054214;28;20196;-75
2022/02/28 00:43:16;;;;;;;15.67;8.17;;;-3.00;99.90;;;;;;5053123;28;20427;-75
2022/02/28 00:45:43;;;;;;;14.07;8.40;;;-3.00;99.90;;;;;;5054208;28;20412;-74
2022/02/28 00:48:09;;;;;;;13.60;6.50;;;-3.10;99.90;;;;;;5054629;28;20235;-75
2022/02/28 00:50:35;;;;;;;15.50;6.93;;;-3.00;99.90;;;;;;5054155;28;20467;-74
2022/02/28 00:53:00;;;;;;;12.57;7.13;;;-3.10;99.90;;;;;;5059099;28;20205;-75
2022/02/28 00:55:26;;;;;;;11.50;7.13;;;-3.00;99.90;;;;;;5054431;28;20616;-75
2022/02/28 00:57:52;;;;;;;10.93;6.20;;;-3.10;99.90;;;;;;5053974;28;20224;-75
2022/02/28 01:00:19;;;;;;;11.53;6.53;;;-3.10;99.90;;;;;;5053921;28;20197;-75
2022/02/28 01:02:46;;;;;;;13.87;6.63;;;-3.10;99.90;;;;;;5054134;28;20173;-75
2022/02/28 01:05:14;;;;;;;12.23;6.87;;;-3.10;99.90;;;;;;5053569;28;20442;-75
2022/02/28 01:07:40;;;;;;;11.00;6.30;;;-3.10;99.90;;;;;;5053864;28;20414;-75
2022/02/28 01:10:08;;;;;;;12.87;6.03;;;-3.20;99.90;;;;;;5054023;28;20470;-75
2022/02/28 01:12:34;;;;;;;12.73;6.90;;;-3.30;99.90;;;;;;5054219;28;20415;-75
2022/02/28 01:15:00;;;;;;;10.87;6.93;;;;;;;;;;5053842;28;20465;-75
2022/02/28 01:17:25;;;;;;;13.17;7.50;;;-3.30;99.90;;;;;;5053848;28;20209;-75
2022/02/28 01:19:51;;;;;;;13.37;7.73;;;;;;;;;;5053614;28;20411;-75
2022/02/28 01:22:17;;;;;;;12.47;7.23;;;-3.20;99.90;;;;;;5053824;28;20192;-75
2022/02/28 01:24:43;;;;;;;15.00;7.53;;;;;;;;;;5053244;28;20423;-75
2022/02/28 01:27:09;;;;;;;11.27;7.43;;;-3.30;99.90;;;;;;5053423;28;20260;-75
2022/02/28 01:29:35;;;;;;;11.73;7.00;;;;;;;;;;5053535;28;20416;-75
2022/02/28 01:32:02;;;;;;;15.83;7.70;;;-3.40;99.90;;;;;;5053429;28;20438;-75
2022/02/28 01:34:28;;;;;;;13.90;6.97;;;;;;;;;;5053347;28;20486;-75
2022/02/28 01:36:54;;;;;;;10.17;6.70;;;-3.60;99.90;;;;;;5053511;28;20878;-74
2022/02/28 01:39:20;;;;;;;13.70;7.23;;;;;;;;;;5053827;28;20180;-74
2022/02/28 01:41:46;;;;;;;11.03;6.10;;;;;;;;;;5053473;28;20242;-74
2022/02/28 01:44:11;;;;;;;11.70;6.40;;;-3.50;99.90;;;;;;5053232;28;20400;-74
2022/02/28 01:46:40;;;;;;;9.73;6.57;;;-3.60;99.90;;;;;;5053493;28;20766;-75
2022/02/28 01:49:07;;;;;;;14.03;7.40;;;-3.50;99.90;;;;;;5051953;28;20185;-73
2022/02/28 01:51:35;;;;;;;13.47;7.17;;;-4.00;99.90;;;;;;5053466;28;20435;-73
2022/02/28 01:54:01;;;;;;;9.70;5.83;;;-3.70;99.90;;;;;;5053179;28;20484;-73
2022/02/28 01:56:27;;;;;;;12.50;6.50;;;-3.70;99.90;;;;;;5053163;28;20408;-72
2022/02/28 01:58:53;;;;;;;10.63;6.23;;;;;;;;;;5053055;28;20217;-73
2022/02/28 02:01:19;;;;;;;9.40;6.30;;;-3.70;99.90;;;;;;5052894;28;20204;-72
2022/02/28 02:03:44;;;;;;;13.43;6.80;;;-3.80;99.90;;;;;;5054099;28;20411;-74
2022/02/28 02:06:12;;;;;;;10.57;6.67;;;-3.80;99.90;;;;;;5056998;28;20216;-75
2022/02/28 02:08:38;;;;;;;11.60;6.70;;;-3.90;99.90;;;;;;5057536;28;20169;-75
2022/02/28 02:11:04;;;;;;;11.50;6.07;;;-3.90;99.90;;;;;;5057399;28;20955;-75
2022/02/28 02:13:33;;;;;;;11.27;6.43;;;-4.00;99.90;;;;;;5056856;28;20447;-75
2022/02/28 02:15:59;;;;;;;13.73;7.50;;;-4.10;99.90;;;;;;5056749;28;20172;-75
2022/02/28 02:18:26;;;;;;;13.13;7.47;;;-4.10;99.90;;;;;;5056811;28;20429;-75
2022/02/28 02:20:51;;;;;;;30.07;13.30;;;-4.10;99.90;;;;;;5055385;28;20946;-75
2022/02/28 02:23:17;;;;;;;44.53;17.43;;;;;;;;;;5055395;28;20427;-75
2022/02/28 02:25:44;;;;;;;34.07;14.33;;;-4.10;99.90;;;;;;5055227;28;20187;-74
2022/02/28 02:28:15;;;;;;;33.63;14.57;;;-4.10;99.90;;;;;;5056519;28;20409;-75
2022/02/28 02:30:50;;;;;;;28.63;13.13;;;-4.10;99.90;;;;;;5055296;28;20456;-74
2022/02/28 02:33:17;;;;;;;23.43;11.43;;;-4.20;99.90;;;;;;5056495;28;20530;-74
2022/02/28 02:35:54;;;;;;;28.47;10.73;;;-4.10;99.90;;;;;;5056632;28;20484;-75
2022/02/28 02:38:21;;;;;;;22.73;10.47;;;-4.20;99.90;;;;;;5057124;28;20456;-75
2022/02/28 02:40:47;;;;;;;21.00;9.37;;;-4.10;99.90;;;;;;5056531;28;20793;-74
2022/02/28 02:43:12;;;;;;;20.20;9.77;;;-4.10;99.90;;;;;;5056730;28;20402;-75
2022/02/28 02:45:38;;;;;;;17.27;8.00;;;-4.10;99.90;;;;;;5056852;28;20181;-75
2022/02/28 02:48:19;;;;;;;20.57;9.57;;;-4.20;99.90;;;;;;5056818;28;20188;-75
2022/02/28 02:50:45;;;;;;;15.97;9.13;;;-4.20;99.90;;;;;;5055704;28;20251;-75
2022/02/28 02:53:12;;;;;;;23.47;9.63;;;-4.50;99.90;;;;;;5056299;28;20508;-75
2022/02/28 02:55:39;;;;;;;16.67;8.90;;;-4.20;99.90;;;;;;5054815;28;20421;-75
2022/02/28 02:58:05;;;;;;;19.07;8.47;;;-4.30;99.90;;;;;;5056624;28;20411;-75
2022/02/28 03:00:31;;;;;;;12.97;8.43;;;-4.20;99.90;;;;;;5056130;28;20875;-74
2022/02/28 03:02:57;;;;;;;15.97;8.07;;;-4.40;99.90;;;;;;5059151;28;20414;-75
2022/02/28 03:05:23;;;;;;;16.00;8.20;;;-4.40;99.90;;;;;;5055781;28;20535;-75
2022/02/28 03:07:49;;;;;;;16.57;8.27;;;;;;;;;;5056013;28;20235;-75
2022/02/28 03:10:15;;;;;;;20.03;10.23;;;-4.40;99.90;;;;;;5056203;28;20598;-74
2022/02/28 03:12:41;;;;;;;14.57;8.03;;;-4.50;99.90;;;;;;5056209;28;20507;-75
2022/02/28 03:15:08;;;;;;;14.30;8.17;;;-4.50;99.90;;;;;;5054958;28;20494;-75
2022/02/28 03:17:34;;;;;;;14.87;8.47;;;;;;;;;;5056201;28;20209;-75
2022/02/28 03:20:00;;;;;;;19.67;7.97;;;;;;;;;;5056002;28;20804;-75
2022/02/28 03:22:26;;;;;;;17.47;8.70;;;;;;;;;;5056107;28;20486;-75
2022/02/28 03:24:52;;;;;;;14.13;8.20;;;-4.60;99.90;;;;;;5055911;28;20429;-74
2022/02/28 03:27:17;;;;;;;15.77;8.00;;;-4.60;99.90;;;;;;5055985;28;20404;-75
2022/02/28 03:29:43;;;;;;;16.90;7.87;;;-4.60;99.90;;;;;;5055563;28;20180;-75
2022/02/28 03:32:09;;;;;;;16.03;8.40;;;-4.60;99.90;;;;;;5055797;28;20249;-75
2022/02/28 03:34:34;;;;;;;12.57;7.40;;;-4.70;99.90;;;;;;5055223;28;20210;-75
2022/02/28 03:37:00;;;;;;;17.30;7.40;;;;;;;;;;5055343;28;20631;-75
2022/02/28 03:39:26;;;;;;;16.17;7.27;;;-4.70;99.90;;;;;;5055648;28;20175;-75
2022/02/28 03:41:55;;;;;;;16.80;7.30;;;-4.70;99.90;;;;;;5055239;28;20435;-75
2022/02/28 03:44:21;;;;;;;16.27;7.93;;;;;;;;;;5055451;28;20182;-75
2022/02/28 03:46:48;;;;;;;16.13;8.23;;;-4.70;99.90;;;;;;5055711;28;20894;-74
2022/02/28 03:49:14;;;;;;;11.37;7.30;;;-4.70;99.90;;;;;;5055786;28;20398;-75
2022/02/28 03:51:40;;;;;;;14.40;7.60;;;-4.70;99.90;;;;;;5055182;28;20439;-75
2022/02/28 03:54:10;;;;;;;14.17;7.60;;;;;;;;;;5055178;28;20766;-75
2022/02/28 03:56:36;;;;;;;12.40;7.23;;;;;;;;;;5055495;28;20181;-75
2022/02/28 03:59:02;;;;;;;14.53;8.13;;;;;;;;;;5055091;28;20881;-75
2022/02/28 04:01:28;;;;;;;13.47;6.93;;;;;;;;;;5053678;28;20558;-75
2022/02/28 04:03:54;;;;;;;11.67;6.20;;;;;;;;;;5054949;28;20411;-74
2022/02/28 04:06:20;;;;;;;10.37;6.33;;;-5.00;99.90;;;;;;5053662;28;20470;-75
2022/02/28 04:08:46;;;;;;;12.37;6.93;;;-4.80;99.90;;;;;;5053760;28;20430;-75
2022/02/28 04:11:12;;;;;;;13.60;7.47;;;-4.90;99.90;;;;;;5055063;28;20194;-75
2022/02/28 04:13:38;;;;;;;11.97;6.53;;;;;;;;;;5054730;28;20800;-75
2022/02/28 04:16:04;;;;;;;12.93;7.07;;;-4.90;99.90;;;;;;5054413;28;20251;-74
2022/02/28 04:18:30;;;;;;;11.20;6.03;;;-4.80;99.90;;;;;;5054974;28;20574;-75
2022/02/28 04:20:56;;;;;;;13.67;6.43;;;-4.90;99.90;;;;;;5054669;28;20205;-75
2022/02/28 04:23:22;;;;;;;9.50;6.80;;;;;;;;;;5054787;28;20688;-75
2022/02/28 04:25:48;;;;;;;13.20;8.20;;;;;;;;;;5054438;28;20476;-75
2022/02/28 04:28:14;;;;;;;14.40;6.20;;;-4.90;99.90;;;;;;5054629;28;20507;-75
2022/02/28 04:30:40;;;;;;;20.50;7.20;;;-4.90;99.90;;;;;;5054417;28;20233;-75
2022/02/28 04:33:05;;;;;;;9.70;6.57;;;-4.90;99.90;;;;;;5055061;28;20543;-75
2022/02/28 04:35:31;;;;;;;13.60;7.17;;;-4.70;99.90;;;;;;5054475;28;20180;-74
2022/02/28 04:37:57;;;;;;;10.50;6.33;;;-4.80;99.90;;;;;;5054653;28;20629;-74
2022/02/28 04:40:23;;;;;;;14.43;7.57;;;;;;;;;;5054193;28;20436;-75
2022/02/28 04:42:49;;;;;;;11.90;6.67;;;-4.80;99.90;;;;;;5054843;28;20190;-74
2022/02/28 04:45:15;;;;;;;14.03;7.47;;;;;;;;;;5054330;28;20419;-74
2022/02/28 04:47:41;;;;;;;14.57;8.03;;;;;;;;;;5054715;28;20184;-74
2022/02/28 04:50:07;;;;;;;17.27;8.20;;;-4.70;99.90;;;;;;5054313;28;20420;-74
2022/02/28 04:52:33;;;;;;;18.93;8.17;;;;;;;;;;5054359;28;20176;-75
2022/02/28 04:54:59;;;;;;;17.33;7.37;;;;;;;;;;5052780;28;20594;-74
2022/02/28 04:57:24;;;;;;;17.63;8.27;;;-4.70;99.90;;;;;;5054057;28;20413;-75
2022/02/28 04:59:50;;;;;;;15.70;8.57;;;;;;;;;;5054084;28;20172;-74
2022/02/28 05:02:16;;;;;;;16.03;7.97;;;-4.80;99.90;;;;;;5054164;28;20246;-75
2022/02/28 05:04:42;;;;;;;13.20;7.10;;;-4.80;99.90;;;;;;5052272;28;20434;-75
2022/02/28 05:07:07;;;;;;;13.47;7.53;;;-4.70;99.90;;;;;;5056360;28;20638;-74
2022/02/28 05:09:33;;;;;;;16.23;7.97;;;-4.70;99.90;;;;;;5055311;28;20239;-74
2022/02/28 05:11:59;;;;;;;14.03;7.83;;;-4.80;99.90;;;;;;5052519;28;20201;-75
2022/02/28 05:14:25;;;;;;;13.80;6.97;;;;;;;;;;5053908;28;20234;-75
2022/02/28 05:16:51;;;;;;;14.13;5.73;;;;;;;;;;5054174;28;20626;-75
2022/02/28 05:19:17;;;;;;;11.90;6.10;;;;;;;;;;5054054;28;20206;-75
2022/02/28 05:21:43;;;;;;;13.00;6.43;;;-5.10;99.90;;;;;;5052627;28;20427;-75
2022/02/28 05:24:08;;;;;;;12.87;5.77;;;-5.10;99.90;;;;;;5053585;28;20720;-74
2022/02/28 05:26:34;;;;;;;10.03;5.63;;;-5.10;99.90;;;;;;5053917;28;20180;-75
2022/02/28 05:29:00;;;;;;;8.37;4.47;;;-5.10;99.90;;;;;;5053969;28;20180;-74
2022/02/28 05:31:25;;;;;;;8.87;5.40;;;-5.20;99.90;;;;;;5053827;28;20209;-75
2022/02/28 05:33:51;;;;;;;12.87;5.67;;;;;;;;;;5053536;28;20207;-74
2022/02/28 05:36:17;;;;;;;13.37;6.47;;;;;;;;;;5053768;28;20389;-75
2022/02/28 05:38:43;;;;;;;13.07;7.67;;;-5.20;99.90;;;;;;5053347;28;20212;-75
2022/02/28 05:41:09;;;;;;;12.77;5.20;;;-5.20;99.90;;;;;;5053663;28;20483;-74
2022/02/28 05:43:34;;;;;;;10.87;5.77;;;-5.20;99.90;;;;;;5054083;28;20757;-75
2022/02/28 05:46:00;;;;;;;13.60;6.63;;;-5.20;99.90;;;;;;5053155;28;20538;-75
2022/02/28 05:48:25;;;;;;;6.93;5.27;;;-5.30;99.90;;;;;;5053489;28;20183;-74
2022/02/28 05:50:51;;;;;;;11.63;6.07;;;-5.20;99.90;;;;;;5052462;28;20208;-74
2022/02/28 05:53:17;;;;;;;11.10;6.03;;;;;;;;;;5053631;28;20223;-75
2022/02/28 05:55:43;;;;;;;15.73;8.20;;;-5.10;99.90;;;;;;5053710;28;20230;-74
2022/02/28 05:58:09;;;;;;;19.57;10.53;;;-5.00;99.90;;;;;;5053178;28;20419;-75
2022/02/28 06:00:35;;;;;;;13.50;7.20;;;-5.10;99.90;;;;;;5053031;28;20196;-75
2022/02/28 06:03:00;;;;;;;12.97;7.60;;;-5.20;99.90;;;;;;5053304;28;20892;-75
2022/02/28 06:05:26;;;;;;;12.07;6.47;;;-5.10;99.90;;;;;;5052894;28;20203;-75
2022/02/28 06:07:52;;;;;;;11.37;7.17;;;;;;;;;;5053073;28;20225;-75
2022/02/28 06:10:18;;;;;;;17.97;9.17;;;;;;;;;;5053208;28;20562;-75
2022/02/28 06:12:44;;;;;;;10.67;6.50;;;;;;;;;;5053581;28;20891;-75
2022/02/28 06:15:10;;;;;;;16.60;8.10;;;;;;;;;;5053052;28;20411;-76
2022/02/28 06:17:36;;;;;;;15.27;7.37;;;-5.20;99.90;;;;;;5051654;28;20286;-75
2022/02/28 06:20:05;;;;;;;13.63;7.77;;;-5.00;99.90;;;;;;5052984;28;20868;-76
2022/02/28 06:22:31;;;;;;;16.77;8.13;;;-4.90;99.90;;;;;;5052742;28;20222;-76
2022/02/28 06:24:57;;;;;;;16.90;8.73;;;-4.90;99.90;;;;;;5052897;28;20433;-76
2022/02/28 06:27:25;;;;;;;18.13;8.13;;;-4.90;99.90;;;;;;5052980;28;20190;-75
2022/02/28 06:29:51;;;;;;;16.13;8.63;;;;;;;;;;5053045;28;20263;-75
2022/02/28 06:32:19;;;;;;;17.17;7.70;;;-4.70;99.90;;;;;;5051646;28;20502;-76
2022/02/28 06:34:45;;;;;;;15.00;8.40;;;;;;;;;;5049741;28;20466;-76
2022/02/28 06:37:11;;;;;;;26.50;8.40;;;;;;;;;;5052710;28;20412;-75
2022/02/28 06:39:37;;;;;;;15.27;8.70;;;;;;;;;;5053305;28;20399;-75
2022/02/28 06:42:04;;;;;;;20.00;9.63;;;-4.50;99.90;;;;;;5052733;28;20914;-75
2022/02/28 06:44:29;;;;;;;13.83;8.13;;;-4.90;99.90;;;;;;5052762;28;20427;-75
2022/02/28 06:46:56;;;;;;;16.33;8.53;;;-4.60;99.90;;;;;;5052860;28;20473;-75
2022/02/28 06:49:22;;;;;;;18.17;9.87;;;-4.60;99.90;;;;;;5051327;28;20181;-75
2022/02/28 06:51:48;;;;;;;13.60;9.03;;;-4.50;99.90;;;;;;5056641;28;20441;-74
2022/02/28 06:54:15;;;;;;;13.60;8.23;;;-4.40;99.90;;;;;;5055981;28;20240;-75
2022/02/28 06:56:41;;;;;;;12.37;7.57;;;-4.40;99.90;;;;;;5056063;28;20419;-74
2022/02/28 06:59:07;;;;;;;15.43;7.50;;;;;;;;;;5056476;28;20415;-74
2022/02/28 07:01:35;;;;;;;13.80;7.30;;;-4.40;99.90;;;;;;5055986;28;20431;-75
2022/02/28 07:04:01;;;;;;;23.17;8.60;;;-4.50;99.90;;;;;;5056370;28;20431;-75
2022/02/28 07:06:28;;;;;;;15.70;7.67;;;-4.50;99.90;;;;;;5054473;28;20446;-75
2022/02/28 07:08:54;;;;;;;11.30;6.07;;;;;;;;;;5054763;28;20955;-75
2022/02/28 07:11:20;;;;;;;13.00;6.90;;;-4.50;99.90;;;;;;5056114;28;20433;-74
2022/02/28 07:13:46;;;;;;;13.60;7.27;;;-4.30;99.90;;;;;;5060036;28;20456;-75
2022/02/28 07:16:11;;;;;;;17.10;7.97;;;-4.10;99.90;;;;;;5055605;28;20634;-75
2022/02/28 07:18:37;;;;;;;13.93;8.10;;;;;;;;;;5055223;28;20480;-75
2022/02/28 07:21:03;;;;;;;14.40;6.87;;;;;;;;;;5055776;28;20198;-75
2022/02/28 07:23:30;;;;;;;19.20;8.37;;;;;;;;;;5055530;28;20416;-75
2022/02/28 07:25:56;;;;;;;18.13;8.00;;;-3.70;99.90;;;;;;5055522;28;20418;-75
2022/02/28 07:28:22;;;;;;;16.10;7.93;;;-3.60;99.90;;;;;;5055533;28;20444;-75
2022/02/28 07:30:47;;;;;;;16.27;8.50;;;-3.60;99.90;;;;;;5055517;28;20479;-75
2022/02/28 07:33:13;;;;;;;15.20;8.30;;;-3.40;99.90;;;;;;5055310;28;20274;-75
2022/02/28 07:35:39;;;;;;;14.03;8.70;;;-3.30;99.90;;;;;;5055771;28;20174;-75
2022/02/28 07:38:04;;;;;;;19.30;9.73;;;-3.10;99.90;;;;;;5055382;28;20173;-75
2022/02/28 07:40:30;;;;;;;19.17;11.10;;;-2.90;99.90;;;;;;5056065;28;20193;-75
2022/02/28 07:42:56;;;;;;;15.93;8.17;;;-2.70;99.90;;;;;;5055205;28;20188;-75
2022/02/28 07:45:22;;;;;;;23.33;8.77;;;-2.60;99.90;;;;;;5055185;28;20264;-75
2022/02/28 07:47:48;;;;;;;16.93;8.73;;;-2.50;99.90;;;;;;5053983;28;20212;-75
2022/02/28 07:50:13;;;;;;;18.67;10.17;;;-2.30;99.90;;;;;;5056454;28;20201;-75
2022/02/28 07:52:39;;;;;;;16.13;9.33;;;-2.20;99.90;;;;;;5057031;28;20209;-75
2022/02/28 07:55:06;;;;;;;14.73;8.33;;;-1.50;99.90;;;;;;5055111;28;20174;-76
2022/02/28 07:57:32;;;;;;;16.13;9.40;;;-1.10;99.90;;;;;;5055599;28;20181;-77
2022/02/28 07:59:58;;;;;;;19.07;8.97;;;-0.50;99.90;;;;;;5055886;28;20740;-75
2022/02/28 08:02:24;;;;;;;14.20;8.83;;;0.30;99.90;;;;;;5055100;28;20422;-76
2022/02/28 08:04:50;;;;;;;14.70;9.70;;;1.40;99.90;;;;;;5055496;28;20662;-76
2022/02/28 08:07:16;;;;;;;16.20;8.83;;;2.30;99.90;;;;;;5055638;28;20495;-76
2022/02/28 08:09:42;;;;;;;11.73;7.80;;;2.50;99.90;;;;;;5054995;28;20546;-76
2022/02/28 08:12:08;;;;;;;12.00;8.83;;;2.60;99.90;;;;;;5054920;28;20197;-76
2022/02/28 08:14:33;;;;;;;17.73;9.27;;;3.20;99.90;;;;;;5054681;28;20617;-75
2022/02/28 08:17:00;;;;;;;19.90;9.30;;;3.70;99.90;;;;;;5054911;28;20271;-76
2022/02/28 08:19:26;;;;;;;11.77;8.33;;;4.40;99.90;;;;;;5054567;28;20894;-76
2022/02/28 08:21:51;;;;;;;17.27;8.97;;;4.80;99.90;;;;;;5054430;28;20212;-75
2022/02/28 08:24:17;;;;;;;19.13;9.17;;;4.60;99.90;;;;;;5054448;28;20223;-76
2022/02/28 08:26:44;;;;;;;14.07;9.20;;;4.80;99.90;;;;;;5054488;28;20178;-75
2022/02/28 08:29:09;;;;;;;13.27;8.27;;;4.70;99.90;;;;;;5055145;28;20621;-76
2022/02/28 08:31:35;;;;;;;11.40;8.90;;;4.50;99.90;;;;;;5054475;28;20208;-75
2022/02/28 08:34:01;;;;;;;12.43;8.23;;;4.60;99.90;;;;;;5054178;28;20205;-76
2022/02/28 08:36:26;;;;;;;11.73;8.00;;;4.90;99.90;;;;;;5055054;28;20236;-76
2022/02/28 08:38:52;;;;;;;12.70;8.20;;;5.20;99.90;;;;;;5054504;28;20239;-76
2022/02/28 08:41:18;;;;;;;12.10;8.37;;;5.60;99.90;;;;;;5054505;28;20207;-77
2022/02/28 08:43:44;;;;;;;13.80;8.03;;;5.90;99.90;;;;;;5054237;28;20233;-76
2022/02/28 08:46:10;;;;;;;14.37;7.83;;;5.50;99.90;;;;;;5054030;28;20181;-76
2022/02/28 08:48:36;;;;;;;14.60;8.77;;;5.60;99.90;;;;;;5053376;28;20185;-76
2022/02/28 08:51:02;;;;;;;11.07;7.53;;;5.70;99.90;;;;;;5054029;28;20197;-76
2022/02/28 08:53:28;;;;;;;14.20;8.17;;;5.80;97.70;;;;;;5054088;28;20693;-76
2022/02/28 08:55:53;;;;;;;14.87;7.97;;;5.90;97.10;;;;;;5052642;28;20300;-74
2022/02/28 08:58:20;;;;;;;11.47;8.00;;;6.00;98.50;;;;;;5054327;28;20223;-76
2022/02/28 09:00:45;;;;;;;12.13;7.53;;;6.00;99.20;;;;;;5053894;28;20251;-76
2022/02/28 09:03:11;;;;;;;10.97;7.43;;;6.00;98.00;;;;;;5054394;28;20189;-74
2022/02/28 09:05:37;;;;;;;10.27;7.13;;;6.10;97.90;;;;;;5053750;28;20272;-74
2022/02/28 09:08:03;;;;;;;11.33;7.20;;;6.30;97.70;;;;;;5053877;28;20177;-74
2022/02/28 09:10:29;;;;;;;11.40;6.93;;;6.60;98.30;;;;;;5053694;28;20193;-74
2022/02/28 09:12:55;;;;;;;9.57;6.83;;;6.70;96.30;;;;;;5053200;28;20522;-76
2022/02/28 09:15:21;;;;;;;8.17;6.57;;;6.50;97.90;;;;;;5053530;28;20174;-76
2022/02/28 09:17:46;;;;;;;9.43;6.20;;;6.60;98.90;;;;;;5054589;28;20186;-76
2022/02/28 09:20:12;;;;;;;9.63;6.17;;;6.70;96.70;;;;;;5057533;28;20177;-76
2022/02/28 09:22:38;;;;;;;9.67;6.37;;;6.50;95.10;;;;;;5053904;28;20165;-76
2022/02/28 09:25:05;;;;;;;11.47;6.73;;;6.30;95.90;;;;;;5053616;28;20654;-73
2022/02/28 09:27:31;;;;;;;9.17;6.53;;;6.20;96.40;;;;;;5053804;28;20640;-77
2022/02/28 09:29:57;;;;;;;10.87;7.73;;;5.90;95.80;;;;;;5053587;28;20209;-77
2022/02/28 09:32:22;;;;;;;11.93;7.13;;;6.20;98.30;;;;;;5053799;28;20263;-74
2022/02/28 09:34:48;;;;;;;14.57;7.83;;;6.50;96.60;;;;;;5053269;28;20203;-74
2022/02/28 09:37:14;;;;;;;13.60;8.23;;;6.40;97.60;;;;;;5053078;28;20185;-74
2022/02/28 09:39:39;;;;;;;10.23;7.27;;;6.70;98.00;;;;;;5053457;28;20177;-74
2022/02/28 09:42:05;;;;;;;10.33;7.07;;;7.00;97.10;;;;;;5053518;28;20239;-74
2022/02/28 09:44:31;;;;;;;10.23;6.77;;;7.10;95.70;;;;;;5052165;28;20193;-74
2022/02/28 09:46:59;;;;;;;7.60;5.90;;;7.10;95.20;;;;;;5053409;28;20174;-74
2022/02/28 09:49:25;;;;;;;10.80;6.27;;;7.40;94.90;;;;;;5053363;28;20658;-74
2022/02/28 09:51:51;;;;;;;7.70;6.40;;;7.70;94.70;;;;;;5053256;28;20194;-74
2022/02/28 09:54:16;;;;;;;9.53;6.30;;;7.90;93.90;;;;;;5053083;28;20201;-74
2022/02/28 09:56:43;;;;;;;7.47;6.20;;;7.60;93.80;;;;;;5053549;28;20672;-74
2022/02/28 09:59:08;;;;;;;9.10;6.57;;;7.20;94.00;;;;;;5053656;28;20206;-74
2022/02/28 10:01:35;;;;;;;8.83;6.80;;;7.30;95.00;;;;;;5053176;28;20227;-74
2022/02/28 10:04:00;;;;;;;9.53;6.17;;;7.30;94.70;;;;;;5051737;28;20554;-74
2022/02/28 10:06:26;;;;;;;8.20;6.23;;;7.40;95.40;;;;;;5051820;28;20195;-75
2022/02/28 10:08:59;;;;;;;7.13;5.77;;;7.20;93.60;;;;;;5053150;28;20715;-76
2022/02/28 10:11:29;;;;;;;7.23;5.87;;;7.30;93.80;;;;;;5053104;28;20222;-76
2022/02/28 10:13:57;;;;;;;7.13;5.37;;;7.70;92.80;;;;;;5053106;28;20612;-76
2022/02/28 10:16:45;;;;;;;5.97;4.67;;;8.00;91.10;;;;;;5053624;28;20212;-77
2022/02/28 10:19:23;;;;;;;8.40;5.43;;;7.60;92.80;;;;;;5053096;28;20221;-77
2022/02/28 10:21:54;;;;;;;6.20;4.73;;;7.90;91.80;;;;;;5052968;28;20198;-77
2022/02/28 10:24:28;;;;;;;5.47;4.83;;;7.50;88.20;;;;;;5052683;28;20160;-77
2022/02/28 10:26:59;;;;;;;6.67;5.30;;;7.80;90.90;;;;;;5057122;28;20302;-77
2022/02/28 10:29:30;;;;;;;6.00;4.70;;;8.20;88.90;;;;;;5057363;28;20163;-77
2022/02/28 10:32:01;;;;;;;5.67;4.93;;;8.20;87.70;;;;;;5056793;28;20202;-77
2022/02/28 10:34:30;;;;;;;7.57;4.67;;;8.30;87.00;;;;;;5056697;28;20196;-77
2022/02/28 10:36:58;;;;;;;6.43;4.43;;;8.60;89.10;;;;;;5056445;28;20179;-76
2022/02/28 10:39:30;;;;;;;10.80;5.50;;;8.70;85.30;;;;;;5056880;28;20179;-73
2022/02/28 10:42:04;;;;;;;6.17;5.10;;;8.20;84.20;;;;;;5056469;28;20657;-74
2022/02/28 10:44:31;;;;;;;6.83;5.30;;;8.00;88.00;;;;;;5056482;28;20186;-74
2022/02/28 10:47:05;;;;;;;8.20;5.90;;;8.10;87.00;;;;;;5057137;28;20180;-76
2022/02/28 10:49:33;;;;;;;6.73;5.10;;;8.10;88.20;;;;;;5056998;28;20183;-75
2022/02/28 10:52:11;;;;;;;8.20;5.50;;;8.30;86.10;;;;;;5056379;28;20259;-74
2022/02/28 10:54:45;;;;;;;6.20;5.20;;;8.50;89.20;;;;;;5056151;28;20538;-77
2022/02/28 10:57:18;;;;;;;12.13;5.77;;;8.90;86.80;;;;;;5056156;28;20173;-77
2022/02/28 10:59:44;;;;;;;9.10;5.80;;;9.20;83.20;;;;;;5056164;28;20164;-76
2022/02/28 11:02:29;;;;;;;7.57;5.73;;;9.20;86.30;;;;;;5056413;28;20200;-77
2022/02/28 11:05:13;;;;;;;8.23;5.40;;;9.20;82.10;;;;;;5055929;28;20180;-76
2022/02/28 11:07:43;;;;;;;7.00;5.23;;;9.10;82.90;;;;;;5056260;28;20169;-77
2022/02/28 11:10:11;;;;;;;7.17;4.93;;;9.10;79.30;;;;;;5055989;28;20185;-77
2022/02/28 11:12:38;;;;;;;7.37;4.73;;;8.80;77.90;;;;;;5056114;28;20579;-77
2022/02/28 11:15:10;;;;;;;8.50;5.37;;;8.70;81.90;;;;;;5055463;28;20208;-77
2022/02/28 11:17:39;;;;;;;5.80;5.00;;;9.10;78.10;;;;;;5056365;28;20175;-76
2022/02/28 11:20:08;;;;;;;7.03;5.30;;;9.40;77.40;;;;;;5056251;28;20204;-77
2022/02/28 11:22:35;;;;;;;6.07;5.37;;;9.40;78.70;;;;;;5058450;28;20184;-77
2022/02/28 11:25:03;;;;;;;5.70;4.93;;;9.70;76.30;;;;;;5058385;28;20173;-77
2022/02/28 11:27:29;;;;;;;7.30;5.10;;;9.70;71.00;;;;;;5054322;28;20550;-77
2022/02/28 11:30:03;;;;;;;6.57;4.47;;;9.90;73.00;;;;;;5055552;28;20173;-77
2022/02/28 11:32:29;;;;;;;5.00;3.93;;;10.20;68.10;;;;;;5055987;28;20166;-77
2022/02/28 11:35:33;;;;;;;6.17;4.17;;;10.10;66.10;;;;;;5055353;28;20683;-77
2022/02/28 11:37:59;;;;;;;8.67;4.80;;;10.40;64.50;;;;;;5053977;28;20548;-76
2022/02/28 11:40:30;;;;;;;5.63;4.57;;;10.40;64.80;;;;;;5055632;28;20207;-75
2022/02/28 11:43:13;;;;;;;4.67;4.10;;;10.60;63.80;;;;;;5054159;28;20177;-75
2022/02/28 11:45:53;;;;;;;6.73;4.00;;;10.60;63.70;;;;;;5055270;28;20172;-75
2022/02/28 11:48:24;;;;;;;5.13;3.60;;;11.00;56.80;;;;;;5055496;28;20253;-75
2022/02/28 11:51:00;;;;;;;4.50;4.10;;;11.00;54.70;;;;;;5055465;28;20197;-75
2022/02/28 11:53:48;;;;;;;4.43;3.80;;;11.30;55.60;;;;;;5055107;28;20228;-75
2022/02/28 11:56:17;;;;;;;5.83;4.00;;;11.80;55.20;;;;;;5055097;28;20168;-75
2022/02/28 11:58:54;;;;;;;5.50;4.00;;;12.10;53.80;;;;;;5053324;28;20205;-75
2022/02/28 12:01:28;;;;;;;5.43;3.93;;;11.70;53.60;;;;;;5054513;28;20307;-76
2022/02/28 12:04:16;;;;;;;4.73;4.13;;;11.70;52.60;;;;;;5055102;28;20559;-75
2022/02/28 12:07:05;;;;;;;5.50;3.73;;;11.40;50.60;;;;;;5054891;28;20201;-76
2022/02/28 12:09:37;;;;;;;4.83;3.83;;;11.30;52.30;;;;;;5055114;28;20162;-75
2022/02/28 12:12:20;;;;;;;4.20;3.77;;;12.00;49.20;;;;;;5054406;28;20208;-75
2022/02/28 12:14:59;;;;;;;5.87;4.47;;;12.20;50.00;;;;;;5055014;28;20193;-76
2022/02/28 12:17:40;;;;;;;5.57;4.20;;;12.40;48.80;;;;;;5055507;28;20227;-76
2022/02/28 12:20:14;;;;;;;5.23;4.20;;;12.00;48.90;;;;;;5055184;28;20164;-75
2022/02/28 12:22:55;;;;;;;4.60;4.10;;;12.40;50.50;;;;;;5054654;28;20182;-76
2022/02/28 12:25:30;;;;;;;5.87;4.20;;;12.50;49.60;;;;;;5054565;28;20643;-75
2022/02/28 12:27:56;;;;;;;4.77;4.10;;;13.20;47.80;;;;;;5054760;28;20178;-76
2022/02/28 12:30:37;;;;;;;5.87;4.00;;;13.30;44.60;;;;;;5054787;28;20197;-75
2022/02/28 12:33:03;;;;;;;4.87;4.00;;;13.70;46.20;;;;;;5054364;28;20178;-75
2022/02/28 12:35:58;;;;;;;4.73;3.70;;;13.60;45.10;;;;;;5054307;28;20192;-75
2022/02/28 12:38:30;;;;;;;4.77;3.80;;;13.60;45.50;;;;;;5054254;28;20264;-75
2022/02/28 12:41:09;;;;;;;6.70;4.07;;;13.30;41.50;;;;;;5054283;28;20191;-75
2022/02/28 12:43:36;;;;;;;5.63;4.50;;;13.00;42.70;;;;;;5054270;28;20193;-75
2022/02/28 12:46:07;;;;;;;6.70;5.00;;;13.30;45.00;;;;;;5054000;28;20169;-75
2022/02/28 12:48:33;;;;;;;6.00;4.70;;;13.10;44.20;;;;;;5054494;28;20167;-75
2022/02/28 12:51:02;;;;;;;5.83;5.20;;;13.30;48.20;;;;;;5054539;28;20659;-76
2022/02/28 12:53:31;;;;;;;6.97;5.43;;;13.80;47.20;;;;;;5054327;28;20538;-75
2022/02/28 12:56:06;;;;;;;6.00;5.43;;;13.70;46.20;;;;;;5053801;28;20174;-75
2022/02/28 12:58:36;;;;;;;7.03;5.27;;;13.40;47.70;;;;;;5054314;28;20232;-76
2022/02/28 13:01:15;;;;;;;6.00;5.27;;;13.70;45.90;;;;;;5054375;28;20295;-76